Time;durP1;ratioP1;P1;durP2;ratioP2;P2;SDS_P1;SDS_P2;PMS_P1;PMS_P2;Temp;Humidity;BMP_temperature;BMP_pressure;BME280_temperature;BME280_humidity;BME280_pressure;Samples;Min_cycle;Max_cycle;Signal;HPM_P1;HPM_P2
2022/06/08 00:02:22;;;;;;;1.57;1.03;;;18.10;99.90;;;;;;4953836;29;20599;-78
2022/06/08 00:04:49;;;;;;;1.90;1.27;;;18.10;99.90;;;;;;4954384;28;20572;-78
2022/06/08 00:07:14;;;;;;;2.13;1.53;;;18.10;99.90;;;;;;4954491;29;20616;-78
2022/06/08 00:09:40;;;;;;;1.50;1.20;;;18.10;99.90;;;;;;4953005;28;20636;-78
2022/06/08 00:12:07;;;;;;;2.00;1.40;;;18.10;99.90;;;;;;4952645;29;20977;-78
2022/06/08 00:14:34;;;;;;;2.10;1.40;;;18.00;99.90;;;;;;4953364;29;21103;-78
2022/06/08 00:17:00;;;;;;;1.70;1.50;;;18.00;99.90;;;;;;4954042;29;20560;-78
2022/06/08 00:19:27;;;;;;;1.87;1.60;;;18.00;99.90;;;;;;4936650;29;20607;-78
2022/06/08 00:21:53;;;;;;;3.27;1.17;;;18.00;99.90;;;;;;4953613;29;20572;-77
2022/06/08 00:24:22;;;;;;;1.87;1.60;;;18.00;99.90;;;;;;4952571;29;21246;-78
2022/06/08 00:26:48;;;;;;;1.30;1.00;;;18.00;99.90;;;;;;4953810;29;20299;-77
2022/06/08 00:29:14;;;;;;;1.70;1.50;;;18.00;99.90;;;;;;4953646;28;20724;-78
2022/06/08 00:31:40;;;;;;;1.90;1.60;;;18.00;99.90;;;;;;4952243;29;20168;-77
2022/06/08 00:34:07;;;;;;;1.63;1.50;;;18.00;99.90;;;;;;4936116;29;20622;-78
2022/06/08 00:36:33;;;;;;;2.90;1.70;;;18.00;99.90;;;;;;4953798;29;20191;-78
2022/06/08 00:38:59;;;;;;;2.43;0.93;;;18.00;99.90;;;;;;4936171;29;21140;-78
2022/06/08 00:41:46;;;;;;;1.43;1.03;;;18.00;99.90;;;;;;4953290;29;20583;-77
2022/06/08 00:44:20;;;;;;;1.97;1.10;;;18.00;99.90;;;;;;4952169;29;20572;-77
2022/06/08 00:46:46;;;;;;;1.70;1.00;;;18.10;99.90;;;;;;4952339;29;20658;-78
2022/06/08 00:49:35;;;;;;;1.93;0.90;;;18.10;99.90;;;;;;4953548;28;20588;-77
2022/06/08 00:52:03;;;;;;;2.03;1.10;;;18.10;99.90;;;;;;4953353;29;20920;-77
2022/06/08 00:54:35;;;;;;;2.00;1.20;;;18.10;99.90;;;;;;4953191;29;20650;-77
2022/06/08 00:57:21;;;;;;;5.00;1.27;;;18.00;99.90;;;;;;4952299;29;20583;-77
2022/06/08 01:00:00;;;;;;;2.30;1.37;;;18.00;99.90;;;;;;4951939;29;20599;-76
2022/06/08 01:02:27;;;;;;;1.70;1.30;;;18.00;99.90;;;;;;4952939;29;20568;-78
2022/06/08 01:05:15;;;;;;;2.33;1.37;;;18.00;99.90;;;;;;4936322;29;20580;-77
2022/06/08 01:07:42;;;;;;;4.60;1.43;;;17.90;99.90;;;;;;4951800;28;20627;-78
2022/06/08 01:10:24;;;;;;;1.90;1.10;;;17.90;99.90;;;;;;4951893;29;20567;-78
2022/06/08 01:12:51;;;;;;;1.90;1.17;;;17.90;99.90;;;;;;4951577;29;20615;-78
2022/06/08 01:15:22;;;;;;;2.27;1.13;;;17.90;99.90;;;;;;4952388;29;20615;-78
2022/06/08 01:17:48;;;;;;;2.57;1.63;;;17.90;99.90;;;;;;4954706;28;20679;-79
2022/06/08 01:20:16;;;;;;;1.80;1.50;;;17.90;99.90;;;;;;4940984;29;20591;-76
2022/06/08 01:22:42;;;;;;;2.10;1.90;;;18.00;99.90;;;;;;4956529;29;20667;-77
2022/06/08 01:25:10;;;;;;;3.30;1.53;;;18.00;99.90;;;;;;4957131;29;20556;-77
2022/06/08 01:27:56;;;;;;;3.40;1.60;;;18.00;99.90;;;;;;4955787;28;20970;-76
2022/06/08 01:30:37;;;;;;;4.73;1.43;;;18.00;99.90;;;;;;4956761;29;20568;-78
2022/06/08 01:33:30;;;;;;;5.83;1.47;;;18.00;99.90;;;;;;4956461;29;20563;-77
2022/06/08 01:36:02;;;;;;;1.80;1.47;;;18.00;99.90;;;;;;4955364;29;20899;-77
2022/06/08 01:39:01;;;;;;;2.60;2.30;;;17.90;99.90;;;;;;4955677;29;20599;-77
2022/06/08 01:41:49;;;;;;;1.93;1.30;;;17.90;99.90;;;;;;4939305;29;20584;-77
2022/06/08 01:44:39;;;;;;;2.50;1.30;;;17.90;99.90;;;;;;4955209;29;20915;-77
2022/06/08 01:47:11;;;;;;;2.60;1.53;;;17.80;99.90;;;;;;4956863;29;20611;-77
2022/06/08 01:49:37;;;;;;;2.80;1.13;;;17.70;99.90;;;;;;4939073;29;20596;-77
2022/06/08 01:52:24;;;;;;;5.53;1.77;;;17.60;99.90;;;;;;4955276;29;21158;-77
2022/06/08 01:55:06;;;;;;;2.53;1.40;;;17.60;99.90;;;;;;4923923;29;20222;-77
2022/06/08 01:57:51;;;;;;;8.83;1.93;;;17.60;99.90;;;;;;4956661;28;20564;-77
2022/06/08 02:00:23;;;;;;;2.60;1.33;;;17.60;99.90;;;;;;4939070;29;20592;-77
2022/06/08 02:02:58;;;;;;;1.83;1.33;;;17.50;99.90;;;;;;4939566;29;20563;-77
2022/06/08 02:05:43;;;;;;;1.93;1.23;;;17.50;99.90;;;;;;4955188;29;21330;-77
2022/06/08 02:08:37;;;;;;;2.40;1.37;;;17.40;99.90;;;;;;4945493;29;20647;-77
2022/06/08 02:11:28;;;;;;;3.00;1.30;;;17.40;99.90;;;;;;4956751;29;20672;-78
2022/06/08 02:14:03;;;;;;;3.53;1.30;;;17.30;99.90;;;;;;4955345;29;20564;-77
2022/06/08 02:16:37;;;;;;;1.70;1.00;;;17.30;99.90;;;;;;4956392;29;21006;-76
2022/06/08 02:19:14;;;;;;;1.60;1.20;;;17.30;99.90;;;;;;4955996;28;20599;-76
2022/06/08 02:21:45;;;;;;;2.40;1.07;;;17.30;99.90;;;;;;4954185;29;20575;-76
2022/06/08 02:24:21;;;;;;;3.50;2.13;;;17.20;99.90;;;;;;4938830;29;20650;-76
2022/06/08 02:26:54;;;;;;;2.00;1.50;;;17.20;99.90;;;;;;4954992;29;20623;-76
2022/06/08 02:29:35;;;;;;;1.90;1.70;;;17.20;99.90;;;;;;4937883;29;21002;-76
2022/06/08 02:34:27;;;;;;;1.50;1.10;;;17.20;99.90;;;;;;4922820;29;20582;-77
2022/06/08 02:35:03;;;;;;;1.60;1.13;;;17.10;99.90;;;;;;4938430;29;20576;-76
2022/06/08 02:37:33;;;;;;;1.83;1.60;;;17.10;99.90;;;;;;4955869;29;20631;-76
2022/06/08 02:40:19;;;;;;;2.10;1.30;;;17.10;99.90;;;;;;4938094;29;20568;-76
2022/06/08 02:42:53;;;;;;;2.00;1.80;;;17.10;99.90;;;;;;4938032;29;20580;-77
2022/06/08 02:45:24;;;;;;;2.67;1.40;;;17.10;99.90;;;;;;4938470;29;21175;-76
2022/06/08 02:47:57;;;;;;;2.30;1.50;;;17.00;99.90;;;;;;4954007;28;20751;-77
2022/06/08 02:50:25;;;;;;;3.40;1.43;;;17.10;99.90;;;;;;4953976;29;20576;-76
2022/06/08 02:53:04;;;;;;;3.10;1.50;;;17.00;99.90;;;;;;4955511;29;21150;-76
2022/06/08 02:55:45;;;;;;;1.70;1.27;;;17.00;99.90;;;;;;4954124;29;20576;-77
2022/06/08 02:58:30;;;;;;;2.40;1.47;;;17.10;99.90;;;;;;4937949;29;20678;-76
2022/06/08 03:01:00;;;;;;;2.00;1.40;;;17.00;99.90;;;;;;4954649;29;20623;-76
2022/06/08 03:03:52;;;;;;;3.50;1.20;;;17.10;99.90;;;;;;4954094;29;20655;-76
2022/06/08 03:06:26;;;;;;;2.00;1.27;;;17.10;99.90;;;;;;4938506;29;20667;-76
2022/06/08 03:08:57;;;;;;;2.13;1.47;;;17.00;99.90;;;;;;4955738;28;20619;-77
2022/06/08 03:11:26;;;;;;;2.53;1.80;;;17.00;99.90;;;;;;4955500;29;20953;-76
2022/06/08 03:14:00;;;;;;;3.10;1.63;;;17.00;99.90;;;;;;4940469;29;20572;-76
2022/06/08 03:16:33;;;;;;;3.80;1.23;;;17.00;99.90;;;;;;4939486;29;20670;-76
2022/06/08 03:19:03;;;;;;;2.23;1.50;;;17.10;99.90;;;;;;4955950;29;20611;-76
2022/06/08 03:21:32;;;;;;;2.00;1.40;;;17.10;99.90;;;;;;4937802;29;20576;-76
2022/06/08 03:23:59;;;;;;;1.50;1.20;;;17.10;99.90;;;;;;4955258;29;20615;-76
2022/06/08 03:26:34;;;;;;;1.90;1.23;;;17.10;99.90;;;;;;4938192;29;20620;-76
2022/06/08 03:29:00;;;;;;;1.50;1.07;;;17.10;99.90;;;;;;4938068;29;21195;-76
2022/06/08 03:31:26;;;;;;;2.17;1.20;;;17.10;99.90;;;;;;4937211;29;20580;-76
2022/06/08 03:33:52;;;;;;;7.37;1.60;;;17.10;99.90;;;;;;4937950;29;20580;-76
2022/06/08 03:36:18;;;;;;;2.30;1.23;;;17.10;99.90;;;;;;4937507;29;21143;-77
2022/06/08 03:38:44;;;;;;;3.00;1.17;;;17.00;99.90;;;;;;4937120;28;20632;-75
2022/06/08 03:41:11;;;;;;;2.43;1.10;;;17.10;99.90;;;;;;4936335;28;20584;-76
2022/06/08 03:43:37;;;;;;;2.50;1.13;;;17.10;99.90;;;;;;4937425;29;20583;-75
2022/06/08 03:46:06;;;;;;;2.33;1.57;;;17.20;99.90;;;;;;4937118;29;21214;-75
2022/06/08 03:48:33;;;;;;;2.57;1.50;;;17.20;99.90;;;;;;4954997;28;20670;-75
2022/06/08 03:51:00;;;;;;;3.60;1.40;;;17.20;99.90;;;;;;4936302;29;20576;-75
2022/06/08 03:53:41;;;;;;;4.17;1.20;;;17.20;99.90;;;;;;4937292;29;20662;-75
2022/06/08 03:56:08;;;;;;;1.40;1.00;;;17.20;99.90;;;;;;4954263;29;20571;-76
2022/06/08 03:58:34;;;;;;;2.03;1.60;;;17.20;99.90;;;;;;4937075;29;20706;-76
2022/06/08 04:01:06;;;;;;;3.20;1.20;;;17.20;99.90;;;;;;4936307;29;20600;-76
2022/06/08 04:03:32;;;;;;;3.27;1.10;;;17.30;99.90;;;;;;4937041;29;20604;-76
2022/06/08 04:06:00;;;;;;;2.20;1.20;;;17.30;99.90;;;;;;4937205;29;20627;-76
2022/06/08 04:08:29;;;;;;;2.97;1.30;;;17.30;99.90;;;;;;4936945;29;20624;-76
2022/06/08 04:10:56;;;;;;;1.93;1.70;;;17.30;99.90;;;;;;4955016;29;20580;-76
2022/06/08 04:13:23;;;;;;;2.93;1.37;;;17.30;99.90;;;;;;4937116;29;20579;-77
2022/06/08 04:15:53;;;;;;;1.50;1.27;;;17.40;99.90;;;;;;4952654;29;20565;-77
2022/06/08 04:18:30;;;;;;;3.57;1.23;;;17.40;99.90;;;;;;4953052;29;20647;-76
2022/06/08 04:21:02;;;;;;;2.47;1.13;;;17.40;99.90;;;;;;4952033;29;20584;-76
2022/06/08 04:23:37;;;;;;;1.67;1.10;;;17.50;99.90;;;;;;4936767;29;20563;-75
2022/06/08 04:26:05;;;;;;;2.37;1.53;;;17.50;99.90;;;;;;4952563;29;20682;-75
2022/06/08 04:28:31;;;;;;;3.03;1.77;;;17.50;99.90;;;;;;4920847;29;20993;-75
2022/06/08 04:31:04;;;;;;;1.70;1.20;;;17.50;99.90;;;;;;4951507;29;20591;-75
2022/06/08 04:33:33;;;;;;;3.00;1.20;;;17.50;99.90;;;;;;4936463;29;21003;-75
2022/06/08 04:35:59;;;;;;;3.53;1.00;;;17.50;99.90;;;;;;4952438;28;20600;-76
2022/06/08 04:38:29;;;;;;;2.80;1.03;;;17.60;99.90;;;;;;4936082;29;21072;-75
2022/06/08 04:40:55;;;;;;;3.93;1.10;;;17.60;99.90;;;;;;4935182;29;21159;-75
2022/06/08 04:43:22;;;;;;;3.27;1.57;;;17.60;99.90;;;;;;4951971;28;20922;-75
2022/06/08 04:45:48;;;;;;;1.70;1.20;;;17.70;99.90;;;;;;4936495;29;20663;-76
2022/06/08 04:48:15;;;;;;;1.60;1.03;;;17.60;99.90;;;;;;4936109;29;20638;-75
2022/06/08 04:50:42;;;;;;;1.80;1.30;;;17.60;99.90;;;;;;4951575;29;20691;-75
2022/06/08 04:53:09;;;;;;;4.70;1.30;;;17.70;99.90;;;;;;4951696;29;20612;-75
2022/06/08 04:55:38;;;;;;;1.63;1.00;;;17.70;99.90;;;;;;4952267;29;20970;-75
2022/06/08 04:58:04;;;;;;;1.63;1.13;;;17.80;99.90;;;;;;4935888;29;20608;-76
2022/06/08 05:00:31;;;;;;;2.00;1.20;;;17.80;99.90;;;;;;4952839;29;20939;-76
2022/06/08 05:02:59;;;;;;;2.70;1.30;;;17.90;99.90;;;;;;4952156;29;20580;-76
2022/06/08 05:05:37;;;;;;;2.37;1.20;;;17.90;99.90;;;;;;4920505;29;20592;-75
2022/06/08 05:08:08;;;;;;;2.47;1.07;;;18.00;99.90;;;;;;4952013;29;20723;-75
2022/06/08 05:10:37;;;;;;;2.17;1.50;;;18.10;99.90;;;;;;4951328;29;20568;-75
2022/06/08 05:13:05;;;;;;;3.17;1.20;;;18.20;99.90;;;;;;4935923;29;20647;-75
2022/06/08 05:15:35;;;;;;;2.10;1.43;;;18.30;99.90;;;;;;4951934;29;20605;-75
2022/06/08 05:18:03;;;;;;;1.80;1.10;;;18.50;99.90;;;;;;4952201;29;20946;-76
2022/06/08 05:20:30;;;;;;;2.27;1.20;;;18.60;99.90;;;;;;4952460;29;20563;-76
2022/06/08 05:22:57;;;;;;;5.00;1.40;;;18.70;99.90;;;;;;4951979;29;20587;-76
2022/06/08 05:25:33;;;;;;;1.70;1.00;;;18.90;99.90;;;;;;4951567;29;20572;-77
2022/06/08 05:27:59;;;;;;;1.60;1.10;;;19.00;99.90;;;;;;4951122;29;20664;-77
2022/06/08 05:30:35;;;;;;;2.87;1.30;;;19.10;99.90;;;;;;4950243;29;20587;-77
2022/06/08 05:33:01;;;;;;;3.53;1.30;;;19.30;99.90;;;;;;4950840;29;21159;-77
2022/06/08 05:35:29;;;;;;;1.60;1.10;;;19.40;99.90;;;;;;4919100;29;20674;-77
2022/06/08 05:37:55;;;;;;;1.93;1.20;;;19.50;99.90;;;;;;4935896;28;20615;-76
2022/06/08 05:40:24;;;;;;;1.70;0.90;;;19.50;99.90;;;;;;4934624;29;20623;-76
2022/06/08 05:42:51;;;;;;;2.20;1.10;;;19.50;99.90;;;;;;4950686;29;20671;-76
2022/06/08 05:45:23;;;;;;;3.60;1.40;;;19.60;99.90;;;;;;4951828;29;20584;-76
2022/06/08 05:47:50;;;;;;;2.67;1.10;;;19.70;99.90;;;;;;4951759;28;20627;-76
2022/06/08 05:50:18;;;;;;;1.80;0.90;;;19.70;99.90;;;;;;4935448;29;20564;-76
2022/06/08 05:52:45;;;;;;;2.60;1.20;;;19.80;99.90;;;;;;4948983;28;20619;-75
2022/06/08 05:55:12;;;;;;;1.80;0.90;;;20.00;99.90;;;;;;4948916;28;20628;-76
2022/06/08 05:57:39;;;;;;;1.80;1.20;;;20.10;99.90;;;;;;4952016;28;21144;-76
2022/06/08 06:00:08;;;;;;;1.67;0.97;;;20.20;99.90;;;;;;4930645;29;20684;-75
2022/06/08 06:02:41;;;;;;;1.40;1.00;;;20.30;99.90;;;;;;4934083;29;20936;-76
2022/06/08 06:05:09;;;;;;;2.43;1.00;;;20.50;99.90;;;;;;4937599;29;20599;-75
2022/06/08 06:07:37;;;;;;;4.50;1.00;;;20.50;99.90;;;;;;4938287;28;20654;-73
2022/06/08 06:10:21;;;;;;;1.50;1.17;;;20.60;99.90;;;;;;4949685;28;20616;-74
2022/06/08 06:12:48;;;;;;;2.93;1.00;;;20.80;99.90;;;;;;4953071;28;20615;-74
2022/06/08 06:15:16;;;;;;;2.33;0.90;;;20.70;99.90;;;;;;4938874;29;20963;-74
2022/06/08 06:17:46;;;;;;;2.43;1.10;;;20.80;99.90;;;;;;4954334;28;20716;-74
2022/06/08 06:20:12;;;;;;;3.30;1.00;;;20.80;99.90;;;;;;4937798;29;21124;-75
2022/06/08 06:23:04;;;;;;;2.53;1.00;;;20.90;99.90;;;;;;4938625;29;20659;-74
2022/06/08 06:25:49;;;;;;;3.33;1.20;;;20.90;99.90;;;;;;4938071;29;20581;-75
2022/06/08 06:28:33;;;;;;;1.63;0.90;;;21.00;99.90;;;;;;4955411;28;20627;-75
2022/06/08 06:31:23;;;;;;;2.47;1.20;;;21.00;99.90;;;;;;4955098;28;20568;-76
2022/06/08 06:34:14;;;;;;;1.90;0.90;;;21.00;99.90;;;;;;4946922;28;20600;-76
2022/06/08 06:36:41;;;;;;;2.23;0.80;;;20.90;99.90;;;;;;4919427;29;20699;-76
2022/06/08 06:39:08;;;;;;;2.50;0.90;;;21.00;99.90;;;;;;4953814;29;20778;-76
2022/06/08 06:41:38;;;;;;;2.60;0.90;;;21.00;99.90;;;;;;4936908;29;20618;-76
2022/06/08 06:44:04;;;;;;;2.40;0.80;;;21.00;99.90;;;;;;4953866;29;20997;-75
2022/06/08 06:46:35;;;;;;;3.13;1.10;;;21.00;99.90;;;;;;4937748;29;20995;-74
2022/06/08 06:49:11;;;;;;;2.17;1.30;;;21.20;99.90;;;;;;4953705;28;20625;-76
2022/06/08 06:51:38;;;;;;;2.47;1.27;;;21.30;99.90;;;;;;4955092;29;20580;-76
2022/06/08 06:54:06;;;;;;;1.67;1.00;;;21.50;99.90;;;;;;4954827;29;20579;-76
2022/06/08 06:56:34;;;;;;;3.50;0.90;;;21.70;99.90;;;;;;4936355;29;20632;-76
2022/06/08 06:59:05;;;;;;;3.30;1.00;;;22.10;99.90;;;;;;4953604;28;20620;-75
2022/06/08 07:01:34;;;;;;;1.93;0.83;;;22.40;99.90;;;;;;4938170;28;20627;-75
2022/06/08 07:04:01;;;;;;;1.40;0.87;;;22.50;99.90;;;;;;4937405;29;21202;-75
2022/06/08 07:06:29;;;;;;;2.30;1.00;;;22.60;99.90;;;;;;4953219;28;20627;-74
2022/06/08 07:08:59;;;;;;;6.57;1.10;;;22.70;99.90;;;;;;4937230;29;20627;-76
2022/06/08 07:11:40;;;;;;;2.47;0.90;;;22.70;99.90;;;;;;4936479;29;20595;-75
2022/06/08 07:14:18;;;;;;;1.67;0.73;;;22.70;99.90;;;;;;4921698;28;20690;-74
2022/06/08 07:16:47;;;;;;;1.60;0.80;;;22.60;99.90;;;;;;4954464;28;20684;-74
2022/06/08 07:19:15;;;;;;;2.10;0.70;;;22.50;99.90;;;;;;4953213;28;21170;-75
2022/06/08 07:21:42;;;;;;;2.17;0.93;;;22.40;99.90;;;;;;4936338;29;21135;-73
2022/06/08 07:24:12;;;;;;;5.13;0.83;;;22.30;99.90;;;;;;4954487;28;20580;-73
2022/06/08 07:26:38;;;;;;;1.80;0.80;;;22.10;99.90;;;;;;4941529;29;20735;-74
2022/06/08 07:29:05;;;;;;;1.87;0.90;;;22.00;99.90;;;;;;4942748;28;20819;-74
2022/06/08 07:31:31;;;;;;;1.90;0.80;;;21.90;99.90;;;;;;4928255;29;20603;-73
2022/06/08 07:33:57;;;;;;;2.17;0.70;;;21.90;99.90;;;;;;4937141;29;20580;-75
2022/06/08 07:36:23;;;;;;;1.80;0.90;;;21.80;99.90;;;;;;4954401;28;20582;-75
2022/06/08 07:38:49;;;;;;;2.33;1.30;;;21.80;99.90;;;;;;4954153;28;20191;-75
2022/06/08 07:41:15;;;;;;;2.20;0.80;;;21.80;99.90;;;;;;4936393;28;21140;-74
2022/06/08 07:43:41;;;;;;;1.90;0.80;;;21.80;99.90;;;;;;4936725;29;21024;-75
2022/06/08 07:46:07;;;;;;;2.47;0.93;;;21.80;99.90;;;;;;4953980;29;20200;-75
2022/06/08 07:51:17;;;;;;;2.37;0.90;;;21.70;99.90;;;;;;4953049;29;20572;-74
2022/06/08 07:53:43;;;;;;;2.37;1.10;;;21.60;99.90;;;;;;4953878;29;20584;-74
2022/06/08 07:56:09;;;;;;;2.17;1.00;;;21.60;99.90;;;;;;4954095;29;21171;-74
2022/06/08 07:58:36;;;;;;;1.60;0.83;;;21.60;99.90;;;;;;4953631;28;20963;-73
2022/06/08 08:01:01;;;;;;;1.87;0.90;;;21.70;99.90;;;;;;4953021;29;20596;-74
2022/06/08 08:03:28;;;;;;;2.97;0.87;;;21.90;99.90;;;;;;4940244;28;20579;-74
2022/06/08 08:05:56;;;;;;;3.03;0.87;;;22.20;99.90;;;;;;4953463;28;20588;-74
2022/06/08 08:08:22;;;;;;;2.67;0.90;;;22.50;99.90;;;;;;4953638;28;20621;-75
2022/06/08 08:10:49;;;;;;;3.40;0.80;;;23.10;99.90;;;;;;4951589;28;20618;-74
2022/06/08 08:13:14;;;;;;;2.57;0.90;;;23.60;99.90;;;;;;4953491;28;20578;-74
2022/06/08 08:15:43;;;;;;;2.13;0.77;;;24.10;99.90;;;;;;4953384;28;20583;-73
2022/06/08 08:18:10;;;;;;;3.50;0.77;;;24.30;99.90;;;;;;4935763;29;21190;-73
2022/06/08 08:20:35;;;;;;;2.03;0.70;;;24.80;99.90;;;;;;4919599;28;20595;-73
2022/06/08 08:23:02;;;;;;;3.87;0.77;;;25.10;99.90;;;;;;4935774;29;20587;-73
2022/06/08 08:25:29;;;;;;;2.23;0.83;;;25.40;99.90;;;;;;4953178;28;21131;-73
2022/06/08 08:27:55;;;;;;;2.27;0.70;;;25.80;99.90;;;;;;4935026;28;22445;-73
2022/06/08 08:30:24;;;;;;;2.20;0.70;;;26.20;99.90;;;;;;4952718;28;20574;-72
2022/06/08 08:32:50;;;;;;;1.80;0.77;;;26.70;99.90;;;;;;4933606;29;20600;-72
2022/06/08 08:35:17;;;;;;;1.20;0.50;;;27.40;99.90;;;;;;4935544;29;20643;-73
2022/06/08 08:37:45;;;;;;;2.20;0.93;;;28.30;99.90;;;;;;4953081;28;20584;-73
2022/06/08 08:40:25;;;;;;;1.80;0.70;;;29.10;99.90;;;;;;4937173;29;20611;-73
2022/06/08 08:42:51;;;;;;;4.33;0.60;;;29.70;99.90;;;;;;4950710;29;20572;-73
2022/06/08 08:45:17;;;;;;;1.87;0.70;;;30.40;99.90;;;;;;4951519;29;20581;-73
2022/06/08 08:48:01;;;;;;;2.40;0.80;;;31.20;99.90;;;;;;4952745;28;20630;-73
2022/06/08 08:50:37;;;;;;;1.37;0.47;;;31.60;99.90;;;;;;4934457;29;20175;-72
2022/06/08 08:53:10;;;;;;;1.90;0.77;;;31.90;99.90;;;;;;4951133;29;20582;-72
2022/06/08 08:55:50;;;;;;;1.47;0.50;;;32.30;99.90;;;;;;4951822;29;20588;-73
2022/06/08 08:58:20;;;;;;;1.70;0.70;;;32.80;99.90;;;;;;4952559;28;20600;-73
2022/06/08 09:00:52;;;;;;;1.30;0.60;;;33.30;99.90;;;;;;4931693;29;20709;-74
2022/06/08 09:03:35;;;;;;;1.80;0.63;;;33.40;99.30;;;;;;4932671;29;20569;-73
2022/06/08 09:06:07;;;;;;;2.90;0.70;;;34.00;99.90;;;;;;4933971;29;20588;-74
2022/06/08 09:08:33;;;;;;;2.87;0.60;;;34.40;99.50;;;;;;4932458;29;20620;-72
2022/06/08 09:11:02;;;;;;;1.60;0.70;;;34.80;98.70;;;;;;4932074;29;20600;-72
2022/06/08 09:14:13;;;;;;;1.80;0.60;;;35.10;96.50;;;;;;4933819;29;20569;-71
2022/06/08 09:16:43;;;;;;;2.53;0.70;;;35.20;96.00;;;;;;4899462;29;20606;-73
2022/06/08 09:19:24;;;;;;;2.17;0.53;;;35.30;94.20;;;;;;4931484;29;20985;-73
2022/06/08 09:21:52;;;;;;;4.23;0.70;;;35.10;91.70;;;;;;4933241;29;20576;-73
2022/06/08 09:24:28;;;;;;;2.70;0.77;;;35.00;92.30;;;;;;4932432;29;20608;-73
2022/06/08 09:26:57;;;;;;;3.40;0.90;;;34.90;91.30;;;;;;4932423;29;20625;-74
2022/06/08 09:29:29;;;;;;;1.47;0.60;;;34.80;91.00;;;;;;4933676;29;20958;-72
2022/06/08 09:31:57;;;;;;;3.07;1.17;;;34.50;90.30;;;;;;4931911;29;20949;-74
2022/06/08 09:34:29;;;;;;;2.30;0.73;;;34.10;89.90;;;;;;4933537;29;20570;-73
2022/06/08 09:37:07;;;;;;;2.60;0.60;;;33.70;87.80;;;;;;4932526;29;20191;-73
2022/06/08 09:39:34;;;;;;;1.50;0.60;;;33.30;88.30;;;;;;4935331;29;20626;-72
2022/06/08 09:42:08;;;;;;;2.37;0.60;;;33.00;89.60;;;;;;4936502;29;20574;-74
2022/06/08 09:44:49;;;;;;;2.23;0.60;;;32.80;89.20;;;;;;4936013;29;20618;-73
2022/06/08 09:53:50;;;;;;;1.70;0.80;;;31.90;86.50;;;;;;4921940;29;20596;-73
2022/06/08 09:56:54;;;;;;;3.47;0.60;;;31.30;86.40;;;;;;4955970;28;20583;-73
2022/06/08 09:59:23;;;;;;;2.97;0.70;;;30.80;87.20;;;;;;4953994;28;21047;-74
2022/06/08 10:02:01;;;;;;;1.50;0.50;;;30.30;87.70;;;;;;4955036;28;20591;-73
2022/06/08 10:04:42;;;;;;;1.87;0.60;;;29.80;88.20;;;;;;4938581;28;20615;-73
2022/06/08 10:07:08;;;;;;;3.60;0.97;;;29.40;88.00;;;;;;4938445;29;20679;-73
2022/06/08 10:10:04;;;;;;;4.77;1.63;;;29.00;88.70;;;;;;4954212;28;21218;-72
2022/06/08 10:12:35;;;;;;;2.63;0.90;;;28.60;89.20;;;;;;4955312;28;20172;-73
2022/06/08 10:15:12;;;;;;;4.50;0.73;;;28.30;90.50;;;;;;4955441;28;20637;-73
2022/06/08 10:18:05;;;;;;;3.33;0.87;;;28.10;91.00;;;;;;4955640;28;20591;-73
2022/06/08 10:20:34;;;;;;;3.53;0.80;;;28.00;91.40;;;;;;4945807;28;21167;-73
2022/06/08 10:23:44;;;;;;;2.50;0.60;;;27.80;91.60;;;;;;4954339;28;20595;-73
2022/06/08 10:26:21;;;;;;;2.10;0.80;;;27.70;91.70;;;;;;4954142;28;20639;-73
2022/06/08 10:29:11;;;;;;;2.10;0.90;;;27.70;92.10;;;;;;4948878;28;20611;-74
2022/06/08 10:32:03;;;;;;;2.40;0.80;;;27.60;92.20;;;;;;4956568;29;20604;-75
2022/06/08 10:34:31;;;;;;;2.10;0.63;;;27.60;92.40;;;;;;4924785;29;20588;-73
2022/06/08 10:37:10;;;;;;;1.70;0.70;;;27.50;92.70;;;;;;4953857;29;21139;-74
2022/06/08 10:39:37;;;;;;;2.50;0.90;;;27.40;92.50;;;;;;4954037;28;20634;-74
2022/06/08 10:42:39;;;;;;;4.27;1.40;;;27.40;92.80;;;;;;4954297;28;20611;-74
2022/06/08 10:45:21;;;;;;;2.30;0.80;;;27.30;92.80;;;;;;4955327;28;20719;-74
2022/06/08 10:48:15;;;;;;;3.13;0.90;;;27.20;92.80;;;;;;4954659;28;20619;-74
2022/06/08 10:50:46;;;;;;;3.57;0.80;;;27.10;92.80;;;;;;4948625;28;20640;-74
2022/06/08 10:56:23;;;;;;;5.13;0.83;;;26.90;92.80;;;;;;4954652;28;20608;-74
2022/06/08 10:59:07;;;;;;;3.63;0.80;;;26.70;93.30;;;;;;4952222;28;20659;-74
2022/06/08 11:02:15;;;;;;;3.63;0.80;;;26.50;93.30;;;;;;4952018;28;20662;-74
2022/06/08 11:04:51;;;;;;;3.37;0.83;;;26.30;93.40;;;;;;4937178;29;20588;-74
2022/06/08 11:07:22;;;;;;;3.60;1.33;;;26.10;93.30;;;;;;4954762;29;21027;-74
2022/06/08 11:09:49;;;;;;;3.33;1.33;;;25.80;93.60;;;;;;4936712;29;20678;-73
2022/06/08 11:12:15;;;;;;;3.87;1.00;;;25.60;94.00;;;;;;4953905;29;20653;-73
2022/06/08 11:14:47;;;;;;;2.97;0.63;;;25.30;94.50;;;;;;4954623;29;20925;-73
2022/06/08 11:17:25;;;;;;;3.80;0.90;;;24.90;94.80;;;;;;4953033;29;20715;-73
2022/06/08 11:19:56;;;;;;;1.70;0.67;;;24.60;94.90;;;;;;4936494;29;20611;-73
2022/06/08 11:22:29;;;;;;;3.03;0.90;;;24.30;95.40;;;;;;4935468;29;20596;-73
2022/06/08 11:24:58;;;;;;;2.63;0.80;;;24.00;96.00;;;;;;4953116;29;21171;-73
2022/06/08 11:27:29;;;;;;;5.40;0.70;;;23.70;96.60;;;;;;4953262;28;20656;-73
2022/06/08 11:30:00;;;;;;;3.30;0.77;;;23.40;98.10;;;;;;4953887;28;20994;-72
2022/06/08 11:32:33;;;;;;;4.60;1.13;;;23.20;98.40;;;;;;4936990;29;20914;-73
2022/06/08 11:35:05;;;;;;;2.57;1.37;;;23.00;99.10;;;;;;4954326;29;20575;-73
2022/06/08 11:37:40;;;;;;;3.10;1.20;;;22.80;99.60;;;;;;4936464;29;20587;-73
2022/06/08 11:40:21;;;;;;;1.67;0.80;;;22.70;99.90;;;;;;4953983;29;20626;-73
2022/06/08 11:42:52;;;;;;;3.20;0.70;;;22.60;99.90;;;;;;4954023;29;21151;-73
2022/06/08 11:45:20;;;;;;;2.07;0.80;;;22.40;99.90;;;;;;4959592;28;20981;-72
2022/06/08 11:47:49;;;;;;;2.90;0.80;;;22.40;99.90;;;;;;4935448;28;20663;-72
2022/06/08 11:50:19;;;;;;;3.00;0.77;;;22.40;99.90;;;;;;4952524;29;20596;-73
2022/06/08 11:52:57;;;;;;;2.30;0.90;;;22.30;99.90;;;;;;4935293;29;20595;-73
2022/06/08 11:55:27;;;;;;;2.30;0.80;;;22.30;99.90;;;;;;4954170;29;20909;-73
2022/06/08 11:58:04;;;;;;;7.33;1.00;;;22.30;99.90;;;;;;4936622;28;21177;-73
2022/06/08 12:00:52;;;;;;;1.97;0.80;;;22.30;99.90;;;;;;4952347;28;20596;-74
2022/06/08 12:03:50;;;;;;;2.23;0.90;;;22.20;99.90;;;;;;4953389;28;21171;-74
2022/06/08 12:06:22;;;;;;;2.27;0.80;;;22.20;99.90;;;;;;4923919;29;20647;-80
2022/06/08 12:08:59;;;;;;;2.47;1.10;;;22.20;99.90;;;;;;4946228;28;21194;-79
2022/06/08 12:11:29;;;;;;;5.60;1.30;;;22.20;99.90;;;;;;4952944;29;20596;-79
2022/06/08 12:14:00;;;;;;;3.73;1.30;;;22.30;99.90;;;;;;4953495;28;20592;-78
2022/06/08 12:16:31;;;;;;;4.13;1.13;;;22.30;99.90;;;;;;4953942;29;20928;-78
2022/06/08 12:19:04;;;;;;;3.20;1.13;;;22.40;99.90;;;;;;4953329;28;20651;-78
2022/06/08 12:21:36;;;;;;;3.23;1.23;;;22.40;99.90;;;;;;4957109;29;20580;-78
2022/06/08 12:24:19;;;;;;;2.23;0.90;;;22.40;99.90;;;;;;4953669;29;20612;-79
2022/06/08 12:26:51;;;;;;;3.07;1.43;;;22.40;99.90;;;;;;4953511;29;20623;-78
2022/06/08 12:29:27;;;;;;;2.47;0.80;;;22.40;99.90;;;;;;4953433;28;20914;-80
2022/06/08 12:32:22;;;;;;;3.00;0.80;;;22.40;99.90;;;;;;4950336;29;20583;-79
2022/06/08 12:35:05;;;;;;;3.67;0.90;;;22.40;99.90;;;;;;4950815;29;20961;-79
2022/06/08 12:37:44;;;;;;;3.20;0.90;;;22.30;99.90;;;;;;4953400;29;20572;-79
2022/06/08 12:40:17;;;;;;;3.20;0.80;;;22.30;99.90;;;;;;4938438;29;20568;-79
2022/06/08 12:42:50;;;;;;;2.43;0.80;;;22.30;99.90;;;;;;4954286;29;20980;-79
2022/06/08 12:45:35;;;;;;;1.93;0.70;;;22.20;99.90;;;;;;4955058;29;21169;-79
2022/06/08 12:48:36;;;;;;;2.60;0.80;;;22.20;99.90;;;;;;4955518;28;21043;-79
2022/06/08 12:51:23;;;;;;;2.40;0.80;;;22.20;99.90;;;;;;4874157;29;20665;-78
2022/06/08 12:53:49;;;;;;;3.00;0.90;;;22.30;99.90;;;;;;4947481;29;20626;-78
2022/06/08 12:56:18;;;;;;;2.10;0.90;;;22.20;99.90;;;;;;4949633;28;20602;-78
2022/06/08 12:58:48;;;;;;;2.90;0.80;;;22.30;99.90;;;;;;4954881;28;21009;-78
2022/06/08 13:01:14;;;;;;;2.10;0.90;;;22.30;99.90;;;;;;4945912;28;21044;-80
2022/06/08 13:03:43;;;;;;;3.30;0.93;;;22.30;99.90;;;;;;4949769;28;20602;-80
2022/06/08 13:06:11;;;;;;;2.20;0.90;;;22.30;99.90;;;;;;4937975;28;20738;-79
2022/06/08 13:08:42;;;;;;;5.00;1.07;;;22.30;99.90;;;;;;4936788;29;20644;-80
2022/06/08 13:11:16;;;;;;;2.83;1.00;;;22.30;99.90;;;;;;4953139;28;20996;-81
2022/06/08 13:13:43;;;;;;;2.60;0.83;;;22.40;99.90;;;;;;4947838;29;20969;-79
2022/06/08 13:16:23;;;;;;;1.90;0.80;;;22.30;99.90;;;;;;4949192;28;20705;-79
2022/06/08 13:18:51;;;;;;;2.07;1.03;;;22.30;99.90;;;;;;4948132;28;20982;-80
2022/06/08 13:21:18;;;;;;;3.60;0.93;;;22.30;99.90;;;;;;4938633;29;20988;-80
2022/06/08 13:23:45;;;;;;;2.07;0.80;;;22.20;99.90;;;;;;4938005;29;20651;-81
2022/06/08 13:26:20;;;;;;;3.83;1.00;;;22.20;99.90;;;;;;4956290;28;20598;-80
2022/06/08 13:28:47;;;;;;;3.10;1.00;;;22.10;99.90;;;;;;4951178;28;20623;-79
2022/06/08 13:31:13;;;;;;;2.63;1.63;;;22.10;99.90;;;;;;4955655;29;20618;-78